Terminal Aerodrome Forecast
Issued by NWS Austin/San Antonio, TX

Home | Current Version | Previous Version | Text Only | Print | Product List | Glossary On
Versions: 1 2 3 4 5 6 7 8 9 10 11 12 13 14 15 16 17 18 19
000
FTUS44 KEWX 310600 RRA
TAFAUS
TAF
KAUS 310635Z 3107/0112 15010G15KT P6SM FEW070 BKN150
     FM310800 18003KT P6SM BKN010
     FM311600 17010KT P6SM SCT035
     FM312000 17013G18KT P6SM SCT060
     FM010200 16008KT P6SM FEW030
     FM010600 17003KT P6SM BKN015=

USA.gov is the U.S. government's official web portal to all federal, state and local government web resources and services.